createdAt,value
2023-04-17T00:00:48.124Z,10.13
2023-04-17T00:03:17.116Z,6.87
2023-04-17T00:05:47.004Z,8.43
2023-04-17T00:08:15.290Z,7.97
2023-04-17T00:10:45.553Z,11.77
2023-04-17T00:13:17.729Z,9.47
2023-04-17T00:15:45.982Z,8.67
2023-04-17T00:18:15.221Z,9.13
2023-04-17T00:20:43.604Z,7.97
2023-04-17T00:23:13.272Z,9.60
2023-04-17T00:25:44.610Z,10.77
2023-04-17T00:28:12.648Z,7.17
2023-04-17T00:30:41.207Z,9.10
2023-04-17T00:33:10.315Z,5.73
2023-04-17T00:35:38.742Z,10.10
2023-04-17T00:38:07.958Z,10.33
2023-04-17T00:40:40.124Z,7.83
2023-04-17T00:43:08.452Z,7.60
2023-04-17T00:45:38.230Z,8.30
2023-04-17T00:48:09.071Z,8.53
2023-04-17T00:50:38.041Z,9.47
2023-04-17T00:53:07.728Z,9.90
2023-04-17T00:55:40.996Z,8.90
2023-04-17T00:58:09.697Z,8.97
2023-04-17T01:00:38.201Z,10.93
2023-04-17T01:03:07.429Z,9.10
2023-04-17T01:05:40.436Z,13.63
2023-04-17T01:08:08.692Z,10.23
2023-04-17T01:10:38.351Z,11.37
2023-04-17T01:13:07.936Z,10.23
2023-04-17T01:15:38.104Z,9.87
2023-04-17T01:18:07.245Z,13.07
2023-04-17T01:20:38.482Z,7.80
2023-04-17T01:23:07.458Z,7.50
2023-04-17T01:25:37.292Z,13.27
2023-04-17T01:28:08.327Z,13.90
2023-04-17T01:30:38.446Z,11.13
2023-04-17T01:33:07.745Z,9.43
2023-04-17T01:35:38.022Z,9.53
2023-04-17T01:38:08.110Z,9.73
2023-04-17T01:40:39.261Z,10.87
2023-04-17T01:43:09.733Z,12.67
2023-04-17T01:45:39.115Z,13.37
2023-04-17T01:48:07.726Z,10.57
2023-04-17T01:50:37.468Z,11.97
2023-04-17T01:53:05.840Z,12.67
2023-04-17T01:55:36.390Z,11.33
2023-04-17T01:58:10.929Z,12.33
2023-04-17T02:00:41.118Z,9.60
2023-04-17T02:03:10.745Z,10.93
2023-04-17T02:05:38.934Z,12.27
2023-04-17T02:08:07.200Z,14.07
2023-04-17T02:10:35.518Z,9.50
2023-04-17T02:13:05.203Z,12.57
2023-04-17T02:15:33.102Z,17.83
2023-04-17T02:18:01.777Z,10.43
2023-04-17T02:20:29.959Z,12.50
2023-04-17T02:22:57.742Z,10.10
2023-04-17T02:25:25.557Z,13.70
2023-04-17T02:27:54.259Z,13.27
2023-04-17T02:30:23.844Z,8.37
2023-04-17T02:32:52.964Z,14.00
2023-04-17T02:35:21.735Z,11.53
2023-04-17T02:37:49.604Z,11.83
2023-04-17T02:40:17.727Z,17.37
2023-04-17T02:42:45.621Z,9.37
2023-04-17T02:45:13.560Z,12.50
2023-04-17T02:47:42.862Z,13.93
2023-04-17T02:50:11.945Z,12.17
2023-04-17T02:52:41.008Z,8.73
2023-04-17T02:55:09.733Z,10.33
2023-04-17T02:57:37.562Z,10.23
2023-04-17T03:00:08.972Z,13.47
2023-04-17T03:02:38.133Z,11.60
2023-04-17T03:05:08.165Z,9.77
2023-04-17T03:07:36.119Z,9.50
2023-04-17T03:10:04.248Z,11.33
2023-04-17T03:12:32.039Z,13.07
2023-04-17T03:14:59.861Z,15.10
2023-04-17T03:17:27.879Z,12.13
2023-04-17T03:19:55.823Z,15.77
2023-04-17T03:22:25.010Z,13.67
2023-04-17T03:24:52.817Z,13.70
2023-04-17T03:27:24.294Z,11.33
2023-04-17T03:29:52.208Z,12.63
2023-04-17T03:32:20.111Z,13.03
2023-04-17T03:34:47.941Z,12.00
2023-04-17T03:37:15.767Z,12.33
2023-04-17T03:39:45.046Z,12.23
2023-04-17T03:42:14.759Z,11.43
2023-04-17T03:44:42.729Z,13.07
2023-04-17T03:47:11.385Z,15.37
2023-04-17T03:49:39.226Z,16.33
2023-04-17T03:52:07.149Z,11.83
2023-04-17T03:54:35.896Z,11.27
2023-04-17T03:57:05.374Z,12.17
2023-04-17T03:59:33.326Z,11.30
2023-04-17T04:02:01.326Z,12.47
2023-04-17T04:04:29.497Z,15.23
2023-04-17T04:06:58.037Z,13.17
2023-04-17T04:09:26.429Z,10.33
2023-04-17T04:11:54.837Z,15.43
2023-04-17T04:14:24.465Z,12.13
2023-04-17T04:16:52.792Z,11.00
2023-04-17T04:19:20.610Z,10.50
2023-04-17T04:21:48.415Z,12.53
2023-04-17T04:24:16.663Z,11.73
2023-04-17T04:26:47.438Z,11.40
2023-04-17T04:29:15.322Z,13.40
2023-04-17T04:31:46.559Z,11.87
2023-04-17T04:34:16.866Z,14.63
2023-04-17T04:36:50.019Z,11.67
2023-04-17T04:39:20.594Z,14.37
2023-04-17T04:41:50.774Z,12.57
2023-04-17T04:44:18.918Z,13.43
2023-04-17T04:46:48.060Z,14.40
2023-04-17T04:49:16.259Z,11.47
2023-04-17T04:51:44.245Z,20.83
2023-04-17T04:54:12.274Z,14.80
2023-04-17T04:56:40.620Z,8.33
2023-04-17T04:59:08.624Z,17.43
2023-04-17T05:01:36.662Z,12.90
2023-04-17T05:04:06.403Z,13.73
2023-04-17T05:06:34.571Z,16.93
2023-04-17T05:09:02.444Z,15.40
2023-04-17T05:11:30.852Z,19.67
2023-04-17T05:13:58.792Z,14.13
2023-04-17T05:16:26.848Z,14.07
2023-04-17T05:18:54.836Z,13.37
2023-04-17T05:21:24.033Z,14.77
2023-04-17T05:23:51.967Z,20.37
2023-04-17T05:26:21.923Z,13.90
2023-04-17T05:28:49.824Z,14.20
2023-04-17T05:31:18.101Z,14.27
2023-04-17T05:33:46.085Z,16.10
2023-04-17T05:36:14.025Z,13.33
2023-04-17T05:38:45.946Z,13.63
2023-04-17T05:41:14.213Z,13.87
2023-04-17T05:43:42.969Z,14.00
2023-04-17T05:46:10.979Z,15.17
2023-04-17T05:48:39.107Z,20.53
2023-04-17T05:51:07.252Z,13.77
2023-04-17T05:53:36.098Z,16.40
2023-04-17T05:56:05.843Z,13.83
2023-04-17T05:58:36.101Z,20.67
2023-04-17T06:01:06.118Z,16.70
2023-04-17T06:03:34.312Z,18.10
2023-04-17T06:06:02.489Z,16.07
2023-04-17T06:08:30.544Z,18.93
2023-04-17T06:10:58.541Z,16.63
2023-04-17T06:13:27.827Z,14.73
2023-04-17T06:15:55.701Z,17.47
2023-04-17T06:18:23.725Z,19.53
2023-04-17T06:20:51.782Z,20.30
2023-04-17T06:23:19.786Z,22.13
2023-04-17T06:25:47.756Z,15.70
2023-04-17T06:28:15.817Z,21.77
2023-04-17T06:30:45.255Z,19.63
2023-04-17T06:33:13.085Z,19.57
2023-04-17T06:35:41.072Z,16.63
2023-04-17T06:38:09.812Z,17.83
2023-04-17T06:40:38.503Z,17.97
2023-04-17T06:43:06.513Z,16.37
2023-04-17T06:45:34.455Z,19.23
2023-04-17T06:48:03.791Z,18.47
2023-04-17T06:50:31.818Z,19.20
2023-04-17T06:52:59.791Z,19.17
2023-04-17T06:55:27.855Z,17.77
2023-04-17T06:57:55.953Z,22.27
2023-04-17T07:00:24.584Z,18.10
2023-04-17T07:02:52.595Z,21.70
2023-04-17T07:05:22.043Z,21.47
2023-04-17T07:07:50.204Z,19.40
2023-04-17T07:10:19.519Z,17.43
2023-04-17T07:12:47.657Z,15.53
2023-04-17T07:15:16.521Z,20.70
2023-04-17T07:17:44.487Z,17.37
2023-04-17T07:20:13.121Z,20.60
2023-04-17T07:22:43.182Z,21.37
2023-04-17T07:25:11.528Z,16.20
2023-04-17T07:27:39.605Z,17.53
2023-04-17T07:30:09.791Z,15.67
2023-04-17T07:32:37.821Z,16.47
2023-04-17T07:35:06.480Z,16.80
2023-04-17T07:37:36.994Z,18.37
2023-04-17T07:40:10.309Z,18.10
2023-04-17T07:42:38.232Z,18.33
2023-04-17T07:45:06.942Z,13.37
2023-04-17T07:47:34.923Z,21.27
2023-04-17T07:50:03.118Z,16.70
2023-04-17T07:52:31.225Z,18.10
2023-04-17T07:54:59.246Z,17.13
2023-04-17T07:57:28.449Z,15.87
2023-04-17T07:59:56.566Z,12.40
2023-04-17T08:02:24.535Z,15.53
2023-04-17T08:04:53.818Z,14.10
2023-04-17T08:07:22.278Z,12.13
2023-04-17T08:09:51.075Z,19.63
2023-04-17T08:12:18.977Z,14.17
2023-04-17T08:17:20.188Z,12.97
2023-04-17T08:19:50.300Z,18.57
2023-04-17T08:22:19.664Z,14.93
2023-04-17T08:24:48.052Z,15.00
2023-04-17T08:27:16.117Z,16.07
2023-04-17T08:29:44.676Z,16.93
2023-04-17T08:32:14.530Z,18.27
2023-04-17T08:34:46.000Z,16.63
2023-04-17T08:37:14.126Z,13.07
2023-04-17T08:39:42.105Z,16.13
2023-04-17T08:42:17.485Z,16.00
2023-04-17T08:44:46.789Z,12.10
2023-04-17T08:47:14.977Z,16.30
2023-04-17T08:49:46.187Z,16.80
2023-04-17T08:52:14.601Z,16.67
2023-04-17T08:54:42.690Z,19.33
2023-04-17T08:57:10.620Z,18.27
2023-04-17T08:59:38.664Z,17.20
2023-04-17T09:02:08.225Z,19.20
2023-04-17T09:04:41.893Z,19.27
2023-04-17T09:07:13.154Z,17.40
2023-04-17T09:09:51.828Z,18.93
2023-04-17T09:12:20.539Z,15.47
2023-04-17T09:14:48.725Z,21.43
2023-04-17T09:17:18.573Z,19.57
2023-04-17T09:20:07.926Z,14.23
2023-04-17T09:22:39.414Z,19.70
2023-04-17T09:25:26.365Z,17.17
2023-04-17T09:27:54.324Z,18.10
2023-04-17T09:30:23.139Z,16.93
2023-04-17T09:33:04.699Z,16.43
2023-04-17T09:35:33.352Z,12.40
2023-04-17T09:38:02.708Z,15.00
2023-04-17T09:40:38.927Z,15.57
2023-04-17T09:43:09.784Z,19.53
2023-04-17T09:45:42.472Z,15.80
2023-04-17T09:48:12.499Z,17.00
2023-04-17T09:50:41.253Z,16.10
2023-04-17T09:53:11.690Z,18.17
2023-04-17T09:55:43.570Z,14.77
2023-04-17T09:58:12.343Z,18.30
2023-04-17T10:00:42.931Z,15.30
2023-04-17T10:03:11.590Z,15.73
2023-04-17T10:05:40.098Z,18.30
2023-04-17T10:08:11.356Z,14.77
2023-04-17T10:10:39.592Z,14.10
2023-04-17T10:13:12.600Z,11.30
2023-04-17T10:15:41.184Z,14.00
2023-04-17T10:18:23.250Z,13.00
2023-04-17T10:20:53.658Z,12.83
2023-04-17T10:23:33.902Z,9.90
2023-04-17T10:26:43.546Z,11.30
2023-04-17T10:29:12.813Z,12.53
2023-04-17T10:32:17.964Z,12.87
2023-04-17T10:34:46.436Z,13.70
2023-04-17T10:37:16.209Z,13.60
2023-04-17T10:39:57.657Z,13.77
2023-04-17T10:42:28.061Z,9.40
2023-04-17T10:45:01.848Z,10.47
2023-04-17T10:47:33.059Z,13.57
2023-04-17T10:50:03.982Z,13.07
2023-04-17T10:52:40.361Z,10.80
2023-04-17T10:55:13.679Z,11.50
2023-04-17T10:58:01.058Z,8.47
2023-04-17T11:00:33.075Z,11.13
2023-04-17T11:03:02.550Z,10.90
2023-04-17T11:05:31.440Z,11.00
2023-04-17T11:08:00.039Z,10.97
2023-04-17T11:10:29.693Z,9.33
2023-04-17T11:12:57.746Z,12.03
2023-04-17T11:15:29.841Z,12.27
2023-04-17T11:17:58.610Z,10.93
2023-04-17T11:20:30.177Z,12.87
2023-04-17T11:22:58.441Z,11.43
2023-04-17T11:25:30.240Z,12.70
2023-04-17T11:28:00.875Z,14.63
2023-04-17T11:30:30.871Z,11.83
2023-04-17T11:33:00.466Z,11.40
2023-04-17T11:35:33.458Z,7.67
2023-04-17T11:38:21.690Z,11.03
2023-04-17T11:40:52.151Z,8.30
2023-04-17T11:43:23.028Z,8.23
2023-04-17T11:45:52.941Z,10.43
2023-04-17T11:48:23.634Z,9.60
2023-04-17T11:50:56.132Z,7.60
2023-04-17T11:53:24.734Z,10.43
2023-04-17T11:56:14.528Z,8.33
2023-04-17T11:58:54.650Z,10.30
2023-04-17T12:01:25.442Z,9.93
2023-04-17T12:03:54.432Z,12.60
2023-04-17T12:06:25.485Z,9.83
2023-04-17T12:08:55.744Z,11.33
2023-04-17T12:11:32.818Z,6.60
2023-04-17T12:14:02.818Z,7.13
2023-04-17T12:16:31.566Z,11.07
2023-04-17T12:18:59.724Z,8.93
2023-04-17T12:21:27.738Z,9.27
2023-04-17T12:23:56.104Z,9.83
2023-04-17T12:26:25.540Z,10.00
2023-04-17T12:28:53.915Z,8.77
2023-04-17T12:31:23.261Z,8.47
2023-04-17T12:33:52.493Z,6.53
2023-04-17T12:36:20.654Z,5.93
2023-04-17T12:38:48.685Z,7.43
2023-04-17T12:41:16.712Z,7.20
2023-04-17T12:43:44.630Z,6.50
2023-04-17T12:46:12.642Z,7.47
2023-04-17T12:48:42.062Z,8.37
2023-04-17T12:51:10.229Z,5.17
2023-04-17T12:53:38.407Z,9.23
2023-04-17T12:56:07.222Z,6.13
2023-04-17T12:58:35.252Z,10.17
2023-04-17T13:01:03.282Z,8.53
2023-04-17T13:03:31.405Z,7.80
2023-04-17T13:06:01.004Z,9.83
2023-04-17T13:08:29.178Z,9.77
2023-04-17T13:10:57.377Z,9.97
2023-04-17T13:13:25.407Z,7.93
2023-04-17T13:15:53.428Z,7.53
2023-04-17T13:18:21.480Z,9.83
2023-04-17T13:20:49.585Z,10.93
2023-04-17T13:23:18.961Z,12.50
2023-04-17T13:25:46.967Z,11.57
2023-04-17T13:28:14.997Z,18.77
2023-04-17T13:30:43.107Z,9.67
2023-04-17T13:33:11.107Z,9.77
2023-04-17T13:35:39.100Z,11.30
2023-04-17T13:38:07.655Z,10.40
2023-04-17T13:40:38.628Z,9.67
2023-04-17T13:43:07.164Z,11.40
2023-04-17T13:45:36.078Z,10.70
2023-04-17T13:48:04.307Z,10.47
2023-04-17T13:50:32.279Z,9.47
2023-04-17T13:53:00.505Z,13.27
2023-04-17T13:55:28.482Z,7.27
2023-04-17T13:57:58.878Z,8.40
2023-04-17T14:00:27.158Z,10.63
2023-04-17T14:02:55.209Z,10.23
2023-04-17T14:05:23.546Z,11.23
2023-04-17T14:07:51.615Z,10.33
2023-04-17T14:10:19.734Z,7.53
2023-04-17T14:12:47.691Z,8.70
2023-04-17T14:17:47.959Z,7.50
2023-04-17T14:20:16.790Z,7.93
2023-04-17T14:22:44.610Z,9.50
2023-04-17T14:25:12.651Z,9.77
2023-04-17T14:27:40.677Z,13.40
2023-04-17T14:30:10.008Z,9.73
2023-04-17T14:32:38.604Z,7.90
2023-04-17T14:35:08.733Z,6.10
2023-04-17T14:37:36.900Z,8.10
2023-04-17T14:40:05.725Z,9.80
2023-04-17T14:42:40.758Z,8.57
2023-04-17T14:45:15.234Z,8.00
2023-04-17T14:47:43.999Z,9.67
2023-04-17T14:50:13.491Z,12.47
2023-04-17T14:52:41.493Z,9.20
2023-04-17T14:55:10.645Z,10.50
2023-04-17T14:57:38.640Z,10.50
2023-04-17T15:00:08.213Z,9.50
2023-04-17T15:02:38.968Z,11.47
2023-04-17T15:05:07.967Z,10.63
2023-04-17T15:07:37.236Z,13.00
2023-04-17T15:10:05.915Z,11.53
2023-04-17T15:12:33.822Z,12.60
2023-04-17T15:15:01.855Z,12.80
2023-04-17T15:17:29.748Z,12.03
2023-04-17T15:19:58.594Z,14.67
2023-04-17T15:22:27.000Z,12.43
2023-04-17T15:24:56.294Z,15.77
2023-04-17T15:27:24.325Z,12.97
2023-04-17T15:29:52.197Z,13.03
2023-04-17T15:32:20.379Z,14.70
2023-04-17T15:34:48.475Z,13.80
2023-04-17T15:37:16.496Z,12.60
2023-04-17T15:39:44.377Z,19.00
2023-04-17T15:42:13.626Z,12.53
2023-04-17T15:44:41.541Z,11.60
2023-04-17T15:47:10.067Z,11.57
2023-04-17T15:49:38.033Z,11.67
2023-04-17T15:52:06.834Z,13.60
2023-04-17T15:54:34.700Z,13.73
2023-04-17T15:57:02.584Z,15.20
2023-04-17T15:59:33.115Z,12.93
2023-04-17T16:02:01.231Z,12.47
2023-04-17T16:04:29.523Z,12.83
2023-04-17T16:06:57.677Z,14.20
2023-04-17T16:09:25.700Z,10.67
2023-04-17T16:11:53.937Z,13.50
2023-04-17T16:14:21.896Z,9.27
2023-04-17T16:16:51.220Z,11.27
2023-04-17T16:19:19.668Z,11.57
2023-04-17T16:21:47.530Z,9.17
2023-04-17T16:24:15.598Z,11.10
2023-04-17T16:26:44.025Z,11.53
2023-04-17T16:29:12.338Z,11.07
2023-04-17T16:31:41.226Z,13.70
2023-04-17T16:34:12.508Z,14.77
2023-04-17T16:36:45.360Z,12.80
2023-04-17T16:39:14.473Z,9.80
2023-04-17T16:41:42.810Z,7.10
2023-04-17T16:44:10.951Z,9.53
2023-04-17T16:47:03.004Z,7.60
2023-04-17T16:49:28.581Z,8.70
2023-04-17T16:51:56.702Z,11.73
2023-04-17T16:54:24.539Z,9.23
2023-04-17T16:56:53.192Z,9.47
2023-04-17T16:59:21.268Z,9.83
2023-04-17T17:01:49.787Z,8.00
2023-04-17T17:04:17.840Z,6.97
2023-04-17T17:06:47.203Z,10.20
2023-04-17T17:09:15.329Z,7.03
2023-04-17T17:11:43.367Z,7.03
2023-04-17T17:14:11.412Z,7.40
2023-04-17T17:16:40.899Z,8.67
2023-04-17T17:19:09.022Z,10.37
2023-04-17T17:21:37.102Z,9.43
2023-04-17T17:24:07.390Z,7.37
2023-04-17T17:26:36.980Z,5.87
2023-04-17T17:29:05.277Z,7.83
2023-04-17T17:31:34.750Z,11.17
2023-04-17T17:34:16.581Z,7.67
2023-04-17T17:36:51.086Z,8.83
2023-04-17T17:39:21.996Z,7.53
2023-04-17T17:41:50.354Z,11.33
2023-04-17T17:44:18.485Z,6.13
2023-04-17T17:46:46.440Z,8.73
2023-04-17T17:49:14.517Z,10.80
2023-04-17T17:51:44.490Z,8.60
2023-04-17T17:54:12.895Z,5.83
2023-04-17T17:56:42.517Z,6.70
2023-04-17T17:59:10.491Z,9.90
2023-04-17T18:01:38.568Z,4.17
2023-04-17T18:04:06.694Z,7.17
2023-04-17T18:06:35.138Z,7.97
2023-04-17T18:09:03.939Z,7.53
2023-04-17T18:11:31.929Z,8.53
2023-04-17T18:14:01.708Z,8.97
2023-04-17T18:16:31.547Z,9.93
2023-04-17T18:19:02.052Z,8.87
2023-04-17T18:21:30.085Z,6.20
2023-04-17T18:23:58.355Z,8.37
2023-04-17T18:26:26.314Z,7.93
2023-04-17T18:28:54.382Z,8.63
2023-04-17T18:31:25.241Z,7.20
2023-04-17T18:33:53.624Z,7.60
2023-04-17T18:36:21.623Z,7.93
2023-04-17T18:38:49.653Z,12.00
2023-04-17T18:41:17.742Z,8.97
2023-04-17T18:43:46.206Z,9.80
2023-04-17T18:46:14.196Z,11.10
2023-04-17T18:48:43.580Z,8.40
2023-04-17T18:51:12.549Z,9.93
2023-04-17T18:53:40.529Z,7.53
2023-04-17T18:56:10.791Z,10.17
2023-04-17T18:58:40.356Z,8.13
2023-04-17T19:01:10.406Z,8.47
2023-04-17T19:03:38.841Z,7.57
2023-04-17T19:06:08.257Z,5.43
2023-04-17T19:08:36.675Z,7.00
2023-04-17T19:11:04.865Z,7.63
2023-04-17T19:13:32.927Z,7.67
2023-04-17T19:16:00.984Z,7.77
2023-04-17T19:18:30.470Z,7.40
2023-04-17T19:20:58.471Z,7.87
2023-04-17T19:23:27.889Z,8.87
2023-04-17T19:25:56.531Z,9.67
2023-04-17T19:28:25.506Z,8.60
2023-04-17T19:30:54.080Z,8.00
2023-04-17T19:33:22.997Z,9.20
2023-04-17T19:35:52.416Z,10.20
2023-04-17T19:38:20.564Z,7.43
2023-04-17T19:41:11.959Z,7.80
2023-04-17T19:43:39.993Z,6.83
2023-04-17T19:46:08.855Z,7.40
2023-04-17T19:48:36.952Z,6.30
2023-04-17T19:51:06.369Z,13.23
2023-04-17T19:53:36.003Z,12.70
2023-04-17T19:56:08.280Z,9.90
2023-04-17T19:58:37.088Z,8.37
2023-04-17T20:01:05.692Z,8.77
2023-04-17T20:03:34.224Z,8.43
2023-04-17T20:06:03.557Z,11.97
2023-04-17T20:08:31.722Z,11.50
2023-04-17T20:10:59.716Z,9.93
2023-04-17T20:13:29.127Z,14.67
2023-04-17T20:15:57.636Z,13.00
2023-04-17T20:18:27.787Z,10.37
2023-04-17T20:20:55.837Z,11.07
2023-04-17T20:23:24.013Z,11.40
2023-04-17T20:25:51.971Z,13.53
2023-04-17T20:28:20.189Z,13.30
2023-04-17T20:30:50.950Z,10.10
2023-04-17T20:33:19.049Z,15.63
2023-04-17T20:35:47.206Z,13.30
2023-04-17T20:38:15.359Z,13.57
2023-04-17T20:40:43.870Z,9.30
2023-04-17T20:43:13.048Z,9.80
2023-04-17T20:45:41.182Z,10.67
2023-04-17T20:48:10.496Z,11.20
2023-04-17T20:50:38.528Z,13.93
2023-04-17T20:53:06.687Z,11.10
2023-04-17T20:55:34.756Z,12.93
2023-04-17T20:58:02.949Z,12.33
2023-04-17T21:00:30.855Z,16.70
2023-04-17T21:02:58.881Z,11.77
2023-04-17T21:05:28.429Z,9.73
2023-04-17T21:07:57.833Z,13.67
2023-04-17T21:10:25.959Z,13.67
2023-04-17T21:12:53.933Z,16.40
2023-04-17T21:15:22.168Z,11.77
2023-04-17T21:17:50.208Z,14.00
2023-04-17T21:20:18.375Z,17.97
2023-04-17T21:22:47.742Z,14.93
2023-04-17T21:25:15.758Z,10.13
2023-04-17T21:27:43.963Z,13.50
2023-04-17T21:30:12.428Z,15.90
2023-04-17T21:32:42.288Z,9.63
2023-04-17T21:35:11.369Z,12.60
2023-04-17T21:37:39.399Z,13.10
2023-04-17T21:40:10.119Z,13.63
2023-04-17T21:42:38.117Z,11.07
2023-04-17T21:45:07.127Z,14.07
2023-04-17T21:47:35.632Z,11.00
2023-04-17T21:50:03.677Z,13.33
2023-04-17T21:52:32.006Z,11.27
2023-04-17T21:55:05.103Z,19.70
2023-04-17T21:57:35.135Z,12.63
2023-04-17T22:00:04.408Z,12.93
2023-04-17T22:02:32.597Z,14.77
2023-04-17T22:05:00.666Z,13.23
2023-04-17T22:07:28.799Z,13.90
2023-04-17T22:09:59.010Z,16.63
2023-04-17T22:12:27.023Z,12.27
2023-04-17T22:14:56.359Z,12.93
2023-04-17T22:17:24.402Z,13.63
2023-04-17T22:19:52.525Z,11.03
2023-04-17T22:22:20.602Z,13.50
2023-04-17T22:24:48.721Z,13.77
2023-04-17T22:27:16.739Z,12.63
2023-04-17T22:29:44.760Z,13.13
2023-04-17T22:32:14.168Z,10.73
2023-04-17T22:34:42.643Z,13.63
2023-04-17T22:37:10.605Z,13.47
2023-04-17T22:39:38.676Z,11.77
2023-04-17T22:42:06.690Z,11.10
2023-04-17T22:44:34.786Z,14.80
2023-04-17T22:47:02.874Z,10.47
2023-04-17T22:49:32.541Z,12.90
2023-04-17T22:52:01.038Z,14.23
2023-04-17T22:54:28.988Z,11.70
2023-04-17T22:56:56.905Z,13.97
2023-04-17T22:59:25.004Z,16.20
2023-04-17T23:01:53.480Z,18.77
2023-04-17T23:04:23.592Z,16.07
2023-04-17T23:06:53.032Z,12.50
2023-04-17T23:09:21.055Z,13.67
2023-04-17T23:11:48.962Z,14.67
2023-04-17T23:14:17.422Z,16.40
2023-04-17T23:16:45.562Z,18.97
2023-04-17T23:19:13.704Z,14.50
2023-04-17T23:21:41.733Z,12.17
2023-04-17T23:24:11.769Z,11.80
2023-04-17T23:26:39.902Z,11.33
2023-04-17T23:29:08.551Z,9.87
2023-04-17T23:31:38.122Z,10.93
2023-04-17T23:34:06.225Z,17.13
2023-04-17T23:36:34.296Z,12.70
2023-04-17T23:39:02.277Z,12.00
2023-04-17T23:41:34.159Z,13.70
2023-04-17T23:44:02.346Z,14.00
2023-04-17T23:46:30.917Z,12.53
2023-04-17T23:48:59.004Z,12.77
2023-04-17T23:51:27.587Z,16.03
2023-04-17T23:53:56.108Z,16.27
2023-04-17T23:56:24.186Z,12.33
2023-04-17T23:58:53.671Z,11.73
